KTAD/TAD METAR and TAF weather

Enter ICAO airport designator
Station Type Date Time Source
KTAD METAR 2019/08/24 19:54 UTC NOAA

KTAD 241954Z AUTO 31012G22KT 10SM CLR 34/01 A3003 RMK AO2 SLP068 T03440011


Station Type Date Time Source
KTAD Decoded METAR 2019/08/24 19:54 UTC NOAA

Station name not available
Aug 24, 2019 - 03:54 PM EDT / 2019.08.24 1954 UTC
Wind: from the NW (310 degrees) at 14 MPH (12 KT) gusting to 25 MPH (22 KT):0
Visibility: 10 mile(s):0
Sky conditions: clear
Temperature: 93.9 F (34.4 C)
Dew Point: 34.0 F (1.1 C)
Relative Humidity: 12%
Pressure (altimeter): 30.03 in. Hg (1016 hPa)
ob: KTAD 241954Z AUTO 31012G22KT 10SM CLR 34/01 A3003 RMK AO2 SLP068 T03440011
cycle: 20

Station Type Date Time Source
KTAD TAF UTC NOAA

Error!

Example: see airport list